Time;durP1;ratioP1;P1;durP2;ratioP2;P2;SDS_P1;SDS_P2;PMS_P1;PMS_P2;Temp;Humidity;BMP_temperature;BMP_pressure;BME280_temperature;BME280_humidity;BME280_pressure;Samples;Min_cycle;Max_cycle;Signal;HPM_P1;HPM_P2
2022/12/05 00:41:29;;;;;;;13.81;6.00;;;;;;;;;;4294065;27;20820;-44
2022/12/05 00:42:30;;;;;;;14.82;5.60;;;;;;;;;;2137903;27;20076;-41
2022/12/05 02:24:52;;;;;;;13.05;5.23;;;;;;;;;;4292811;27;20325;-45
2022/12/05 02:26:08;;;;;;;11.48;4.47;;;;;;;;;;2146745;27;20053;-45
2022/12/05 02:27:27;;;;;;;11.52;4.30;;;;;;;;;;2146884;27;20052;-45
2022/12/05 02:28:42;;;;;;;10.50;3.75;;;;;;;;;;2137326;27;20047;-45
2022/12/05 02:30:00;;;;;;;9.85;3.92;;;;;;;;;;2134681;27;20054;-46
2022/12/05 02:31:06;;;;;;;10.23;4.15;;;;;;;;;;2137927;27;20402;-46
2022/12/05 02:32:10;;;;;;;11.60;4.38;;;;;;;;;;2138303;27;20050;-45
2022/12/05 02:33:16;;;;;;;9.23;3.65;;;;;;;;;;2138193;27;20376;-46
2022/12/05 02:34:21;;;;;;;9.98;4.05;;;;;;;;;;2138298;27;20054;-45
2022/12/05 02:35:30;;;;;;;12.13;4.50;;;;;;;;;;2138327;27;20092;-44
2022/12/05 02:36:34;;;;;;;12.93;4.80;;;;;;;;;;2138199;27;20395;-44
2022/12/05 02:37:39;;;;;;;12.52;4.15;;;;;;;;;;2138119;27;20053;-44
2022/12/05 02:38:44;;;;;;;11.50;4.60;;;;;;;;;;2138148;27;20051;-45
2022/12/05 02:39:47;;;;;;;16.33;4.63;;;;;;;;;;2138522;27;20046;-45
2022/12/05 02:40:53;;;;;;;12.10;4.50;;;;;;;;;;2138308;27;20043;-45
2022/12/05 02:41:57;;;;;;;9.75;4.45;;;;;;;;;;2138343;27;20042;-45
2022/12/05 02:43:00;;;;;;;10.80;4.47;;;;;;;;;;2137891;27;20402;-44
2022/12/05 02:44:03;;;;;;;12.75;4.75;;;;;;;;;;2138056;27;20389;-44
2022/12/05 02:45:08;;;;;;;14.27;4.20;;;;;;;;;;2138100;27;20058;-44
2022/12/05 02:46:11;;;;;;;9.95;4.93;;;;;;;;;;2138152;27;20038;-44
2022/12/05 02:47:14;;;;;;;11.48;4.72;;;;;;;;;;2138100;27;20097;-45
2022/12/05 02:48:16;;;;;;;13.02;4.55;;;;;;;;;;2137770;27;20493;-45
2022/12/05 02:49:17;;;;;;;;;;;;;;;;;;2138520;27;20054;-45
2022/12/05 02:50:19;;;;;;;8.50;4.00;;;;;;;;;;2138139;27;19983;-45
2022/12/05 02:51:22;;;;;;;10.00;4.85;;;;;;;;;;2138258;27;20038;-45
2022/12/05 02:52:24;;;;;;;9.43;4.88;;;;;;;;;;2138023;27;20049;-46
2022/12/05 02:53:26;;;;;;;10.88;4.75;;;;;;;;;;2138150;27;20102;-46
2022/12/05 02:54:29;;;;;;;14.63;5.07;;;;;;;;;;2138130;27;20410;-45
2022/12/05 02:55:31;;;;;;;11.90;4.70;;;;;;;;;;2138085;27;20090;-45
2022/12/05 02:56:33;;;;;;;11.13;4.50;;;;;;;;;;2138037;27;20379;-45
2022/12/05 02:57:34;;;;;;;;;;;;;;;;;;2138445;27;20050;-46
2022/12/05 02:58:38;;;;;;;8.93;4.00;;;;;;;;;;2137943;27;20023;-45
2022/12/05 02:59:39;;;;;;;15.55;4.75;;;;;;;;;;2137980;27;20439;-45
2022/12/05 03:00:43;;;;;;;17.17;4.30;;;;;;;;;;2138161;27;20282;-46
2022/12/05 03:01:44;;;;;;;10.88;4.22;;;;;;;;;;2137981;27;20046;-45
2022/12/05 03:02:47;;;;;;;11.45;5.05;;;;;;;;;;2137930;27;20054;-45
2022/12/05 03:03:48;;;;;;;13.05;5.38;;;;;;;;;;2138254;27;20399;-41
2022/12/05 03:04:49;;;;;;;15.45;4.72;;;;;;;;;;2138179;27;20050;-41
2022/12/05 03:05:55;;;;;;;10.23;4.03;;;;;;;;;;2138037;27;20546;-41
2022/12/05 03:06:58;;;;;;;11.05;4.60;;;;;;;;;;2138070;27;20475;-40
2022/12/05 03:08:01;;;;;;;14.05;4.57;;;;;;;;;;2137984;27;20188;-41
2022/12/05 03:09:05;;;;;;;11.30;5.00;;;;;;;;;;2138148;27;20053;-41
2022/12/05 03:10:07;;;;;;;14.57;4.80;;;;;;;;;;2138034;27;20404;-41
2022/12/05 03:11:08;;;;;;;11.65;4.50;;;;;;;;;;2137964;27;20054;-41
2022/12/05 03:12:11;;;;;;;18.00;6.35;;;;;;;;;;2138148;27;20054;-40
2022/12/05 03:13:15;;;;;;;11.93;5.30;;;;;;;;;;2137870;27;20095;-41
2022/12/05 03:14:20;;;;;;;15.90;5.60;;;;;;;;;;2138128;27;20767;-46
2022/12/05 03:15:24;;;;;;;14.25;5.70;;;;;;;;;;2138206;27;20042;-45
2022/12/05 03:16:28;;;;;;;14.23;6.00;;;;;;;;;;2137981;27;20259;-45
2022/12/05 03:17:33;;;;;;;13.52;5.55;;;;;;;;;;2138042;27;20038;-41
2022/12/05 03:18:36;;;;;;;11.48;5.05;;;;;;;;;;2138070;27;20172;-41
2022/12/05 03:19:43;;;;;;;11.15;4.70;;;;;;;;;;2137810;27;20633;-41
2022/12/05 03:20:45;;;;;;;15.48;5.63;;;;;;;;;;2137950;27;20288;-41
2022/12/05 03:21:49;;;;;;;15.93;5.93;;;;;;;;;;2137969;27;20054;-41
2022/12/05 03:22:52;;;;;;;16.02;5.50;;;;;;;;;;2132100;27;20054;-41
2022/12/05 03:23:55;;;;;;;16.88;6.03;;;;;;;;;;2128374;27;20279;-40
2022/12/05 03:24:56;;;;;;;12.18;5.47;;;;;;;;;;2123360;28;20043;-40
2022/12/05 03:26:00;;;;;;;14.95;5.25;;;;;;;;;;2123567;28;20054;-40
2022/12/05 03:27:06;;;;;;;12.65;5.32;;;;;;;;;;2123553;28;20483;-40
2022/12/05 03:28:12;;;;;;;15.23;5.30;;;;;;;;;;2123551;28;20660;-41
2022/12/05 03:29:19;;;;;;;17.52;6.88;;;;;;;;;;2123398;28;20042;-40
2022/12/05 03:30:21;;;;;;;13.13;5.95;;;;;;;;;;2123548;28;20407;-40
2022/12/05 03:31:26;;;;;;;16.05;5.95;;;;;;;;;;2123457;28;20087;-40
2022/12/05 03:32:31;;;;;;;15.20;5.97;;;;;;;;;;2123704;28;20050;-40
2022/12/05 03:33:34;;;;;;;14.02;4.95;;;;;;;;;;2123529;28;20047;-40
2022/12/05 03:34:49;;;;;;;14.27;4.60;;;;;;;;;;2123591;28;20047;-40
2022/12/05 03:35:54;;;;;;;11.85;4.68;;;;;;;;;;2123686;28;20050;-40
2022/12/05 03:36:55;;;;;;;15.13;5.60;;;;;;;;;;2123628;28;20054;-40
2022/12/05 03:37:59;;;;;;;13.38;5.15;;;;;;;;;;2123453;28;20096;-40
2022/12/05 03:39:02;;;;;;;14.68;4.93;;;;;;;;;;2123608;28;20054;-41
2022/12/05 03:40:06;;;;;;;13.05;5.20;;;;;;;;;;2123444;28;20495;-41
2022/12/05 03:41:08;;;;;;;10.52;4.90;;;;;;;;;;2123608;28;20294;-41
2022/12/05 03:42:12;;;;;;;14.95;4.90;;;;;;;;;;2123517;28;20043;-41
2022/12/05 03:43:15;;;;;;;13.27;5.05;;;;;;;;;;2123279;28;20326;-41
2022/12/05 03:44:18;;;;;;;14.20;4.60;;;;;;;;;;2123339;28;20043;-40
2022/12/05 03:45:21;;;;;;;10.80;4.55;;;;;;;;;;2123522;28;20044;-41
2022/12/05 03:46:25;;;;;;;10.18;5.13;;;;;;;;;;2123502;28;20047;-40
2022/12/05 03:47:32;;;;;;;13.95;5.80;;;;;;;;;;2123555;28;20070;-41
2022/12/05 03:48:37;;;;;;;12.68;4.88;;;;;;;;;;2123756;28;20051;-45
2022/12/05 03:49:40;;;;;;;16.20;5.07;;;;;;;;;;2123530;28;20043;-45
2022/12/05 03:50:43;;;;;;;12.10;4.93;;;;;;;;;;2123480;28;20047;-45
2022/12/05 03:51:46;;;;;;;13.13;5.28;;;;;;;;;;2123524;28;20047;-44
2022/12/05 03:52:50;;;;;;;9.48;4.50;;;;;;;;;;2123277;28;20043;-44
2022/12/05 03:54:14;;;;;;;15.05;4.82;;;;;;;;;;2123417;28;20618;-44
2022/12/05 03:55:16;;;;;;;12.20;5.40;;;;;;;;;;2123700;28;20050;-46
2022/12/05 03:56:17;;;;;;;;;;;;;;;;;;2123947;28;20035;-45
2022/12/05 03:57:20;;;;;;;10.88;4.38;;;;;;;;;;2123449;28;19927;-45
2022/12/05 03:58:25;;;;;;;9.30;3.95;;;;;;;;;;2123339;28;20055;-45
2022/12/05 03:59:29;;;;;;;8.65;4.55;;;;;;;;;;2123398;28;20275;-44
2022/12/05 04:00:32;;;;;;;13.50;4.95;;;;;;;;;;2123297;28;20287;-45
2022/12/05 04:01:34;;;;;;;12.50;4.65;;;;;;;;;;2123390;28;20051;-45
2022/12/05 04:02:44;;;;;;;10.77;5.00;;;;;;;;;;2123069;28;20039;-44
2022/12/05 04:03:50;;;;;;;15.07;4.82;;;;;;;;;;2123511;28;20449;-45
2022/12/05 04:04:53;;;;;;;8.50;3.97;;;;;;;;;;2123588;28;20058;-44
2022/12/05 04:05:57;;;;;;;13.65;5.20;;;;;;;;;;2123534;28;20536;-41
2022/12/05 04:07:00;;;;;;;11.52;4.35;;;;;;;;;;2123329;28;20296;-40
2022/12/05 04:08:03;;;;;;;10.80;4.80;;;;;;;;;;2123215;28;20058;-40
2022/12/05 04:09:06;;;;;;;10.25;4.75;;;;;;;;;;2123220;28;20403;-40
2022/12/05 04:10:13;;;;;;;12.27;4.65;;;;;;;;;;2123499;28;20088;-40
2022/12/05 04:11:15;;;;;;;10.73;4.68;;;;;;;;;;2123272;28;20054;-40
2022/12/05 04:12:20;;;;;;;14.07;5.30;;;;;;;;;;2123454;28;20043;-40
2022/12/05 04:13:24;;;;;;;10.10;4.78;;;;;;;;;;2123228;28;20036;-40
2022/12/05 04:14:27;;;;;;;12.85;5.25;;;;;;;;;;2123347;28;20090;-40
2022/12/05 04:17:02;;;;;;;9.30;5.03;;;;;;;;;;2123327;28;20055;-40
2022/12/05 04:17:04;;;;;;;8.43;4.07;;;;;;;;;;2123471;28;20181;-40
2022/12/05 04:18:05;;;;;;;9.52;4.18;;;;;;;;;;2123177;28;20054;-40
2022/12/05 04:19:11;;;;;;;12.60;5.40;;;;;;;;;;2128559;27;20538;-40
2022/12/05 04:21:37;;;;;;;11.98;4.97;;;;;;;;;;2131820;27;20406;-44
2022/12/05 04:22:39;;;;;;;10.52;4.35;;;;;;;;;;2127680;27;20271;-44
2022/12/05 04:23:40;;;;;;;12.25;4.72;;;;;;;;;;2123245;28;20051;-45
2022/12/05 04:26:12;;;;;;;10.57;4.75;;;;;;;;;;2123327;28;20291;-45
2022/12/05 04:27:20;;;;;;;10.60;4.80;;;;;;;;;;2123183;28;20279;-44
2022/12/05 04:28:29;;;;;;;10.70;4.88;;;;;;;;;;2123152;28;20483;-45
2022/12/05 04:29:32;;;;;;;9.98;4.55;;;;;;;;;;2123039;28;20039;-44
2022/12/05 04:30:38;;;;;;;14.57;5.85;;;;;;;;;;2123242;28;20096;-46
2022/12/05 04:31:41;;;;;;;14.75;5.38;;;;;;;;;;2123170;28;20047;-44
2022/12/05 04:32:44;;;;;;;9.77;4.75;;;;;;;;;;2123087;28;20051;-45
2022/12/05 04:33:49;;;;;;;13.52;4.35;;;;;;;;;;2123265;28;20123;-45
2022/12/05 04:34:54;;;;;;;11.40;4.60;;;;;;;;;;2123287;28;20054;-46
2022/12/05 04:35:58;;;;;;;11.95;4.68;;;;;;;;;;2122418;27;20043;-44
2022/12/05 04:37:01;;;;;;;14.15;5.25;;;;;;;;;;2122996;28;20335;-44
2022/12/05 04:38:04;;;;;;;13.18;5.45;;;;;;;;;;2123068;28;20287;-45
2022/12/05 04:39:08;;;;;;;12.82;4.63;;;;;;;;;;2123219;28;20043;-45
2022/12/05 04:40:19;;;;;;;12.27;5.65;;;;;;;;;;2123228;28;20097;-44
2022/12/05 04:41:21;;;;;;;12.10;5.00;;;;;;;;;;2123090;28;20271;-45
2022/12/05 04:42:24;;;;;;;12.10;5.75;;;;;;;;;;2123063;28;20495;-44
2022/12/05 04:43:27;;;;;;;15.15;5.47;;;;;;;;;;2123067;28;20043;-45
2022/12/05 04:44:29;;;;;;;12.68;5.15;;;;;;;;;;2123257;28;20043;-46
2022/12/05 04:45:31;;;;;;;9.18;4.45;;;;;;;;;;2122987;28;20091;-45
2022/12/05 04:46:34;;;;;;;9.57;5.22;;;;;;;;;;2123327;28;20287;-40
2022/12/05 04:47:38;;;;;;;12.93;4.97;;;;;;;;;;2122843;28;20047;-40
2022/12/05 04:48:41;;;;;;;12.00;4.90;;;;;;;;;;2123029;28;20043;-40
2022/12/05 04:49:43;;;;;;;9.75;5.10;;;;;;;;;;2123235;28;20051;-44
2022/12/05 04:50:51;;;;;;;10.52;5.25;;;;;;;;;;2123066;28;20043;-45
2022/12/05 04:51:54;;;;;;;11.82;5.15;;;;;;;;;;2123204;28;20283;-45
2022/12/05 04:52:56;;;;;;;10.30;4.68;;;;;;;;;;2123059;28;20279;-45
2022/12/05 04:54:01;;;;;;;10.57;4.47;;;;;;;;;;2122844;28;20066;-44
2022/12/05 04:55:04;;;;;;;13.00;5.40;;;;;;;;;;2122988;28;20786;-44
2022/12/05 04:56:05;;;;;;;12.55;4.75;;;;;;;;;;2122945;28;20080;-45
2022/12/05 04:57:09;;;;;;;8.57;4.25;;;;;;;;;;2122995;28;20095;-46
2022/12/05 04:58:11;;;;;;;13.32;4.70;;;;;;;;;;2123015;28;20070;-45
2022/12/05 04:59:12;;;;;;;12.57;5.00;;;;;;;;;;2123029;28;20286;-45
2022/12/05 05:00:14;;;;;;;15.65;5.45;;;;;;;;;;2122998;28;20282;-45
2022/12/05 05:01:17;;;;;;;13.38;4.50;;;;;;;;;;2122912;28;20069;-46
2022/12/05 05:02:20;;;;;;;11.35;5.63;;;;;;;;;;2122977;28;20047;-46
2022/12/05 05:03:23;;;;;;;12.73;5.35;;;;;;;;;;2122956;28;20046;-45
2022/12/05 05:04:26;;;;;;;13.27;4.68;;;;;;;;;;2122871;28;20441;-46
2022/12/05 05:05:27;;;;;;;13.40;4.65;;;;;;;;;;2123098;28;20058;-40
2022/12/05 05:06:29;;;;;;;16.27;5.53;;;;;;;;;;2123084;28;20043;-40
2022/12/05 05:07:30;;;;;;;13.07;5.40;;;;;;;;;;2122861;28;20058;-40
2022/12/05 05:08:31;;;;;;;12.03;5.07;;;;;;;;;;2123032;28;20462;-40
2022/12/05 05:09:32;;;;;;;11.48;5.18;;;;;;;;;;2123180;28;20047;-45
2022/12/05 05:10:37;;;;;;;11.07;4.45;;;;;;;;;;2123010;28;20289;-44
2022/12/05 05:11:38;;;;;;;11.75;5.07;;;;;;;;;;2122937;28;20058;-45
2022/12/05 05:12:39;;;;;;;11.40;5.33;;;;;;;;;;2122816;28;20051;-44
2022/12/05 05:13:40;;;;;;;11.18;4.78;;;;;;;;;;2122984;28;20051;-44
2022/12/05 05:14:41;;;;;;;12.13;4.77;;;;;;;;;;2123072;28;20135;-40
2022/12/05 05:15:42;;;;;;;11.27;5.13;;;;;;;;;;2122502;27;20279;-40
2022/12/05 05:16:44;;;;;;;13.23;6.15;;;;;;;;;;2122876;28;20088;-40
2022/12/05 05:17:45;;;;;;;15.02;5.47;;;;;;;;;;2122791;28;20051;-40
2022/12/05 05:18:46;;;;;;;15.40;5.68;;;;;;;;;;2122816;28;20146;-40
2022/12/05 05:19:47;;;;;;;11.27;4.72;;;;;;;;;;2122779;28;20407;-40
2022/12/05 05:20:48;;;;;;;11.02;5.53;;;;;;;;;;2122935;28;20055;-40
2022/12/05 05:21:50;;;;;;;10.13;5.10;;;;;;;;;;2122728;28;20479;-40
2022/12/05 05:22:52;;;;;;;15.45;5.65;;;;;;;;;;2122566;28;20040;-41
2022/12/05 05:23:53;;;;;;;12.13;5.25;;;;;;;;;;2123006;28;20043;-40
2022/12/05 05:24:54;;;;;;;14.32;5.05;;;;;;;;;;2122773;28;20050;-40
2022/12/05 05:25:55;;;;;;;13.18;5.63;;;;;;;;;;2122742;28;20496;-40
2022/12/05 05:26:57;;;;;;;12.37;5.13;;;;;;;;;;2122967;28;20104;-41
2022/12/05 05:27:58;;;;;;;13.48;4.95;;;;;;;;;;2122898;28;20517;-44
2022/12/05 05:28:59;;;;;;;14.50;5.20;;;;;;;;;;2122767;28;20054;-45
2022/12/05 05:30:00;;;;;;;15.10;5.25;;;;;;;;;;2122832;28;20043;-46
2022/12/05 05:31:02;;;;;;;12.35;5.22;;;;;;;;;;2123019;28;20545;-45
2022/12/05 05:32:03;;;;;;;10.82;5.00;;;;;;;;;;2122760;28;20381;-44
2022/12/05 05:33:04;;;;;;;12.83;5.27;;;;;;;;;;2122751;28;20088;-45
2022/12/05 05:34:05;;;;;;;16.10;6.45;;;;;;;;;;2122685;28;20491;-45
2022/12/05 05:35:11;;;;;;;12.40;5.88;;;;;;;;;;2122561;28;20039;-45
2022/12/05 05:36:12;;;;;;;15.57;5.97;;;;;;;;;;2122733;28;20394;-44
2022/12/05 05:37:14;;;;;;;10.93;4.95;;;;;;;;;;2122914;28;20042;-45
2022/12/05 05:38:15;;;;;;;15.02;5.75;;;;;;;;;;2122643;28;20088;-45
2022/12/05 05:39:16;;;;;;;14.57;5.60;;;;;;;;;;2122930;28;20042;-40
2022/12/05 05:40:17;;;;;;;12.13;4.85;;;;;;;;;;2122887;28;20054;-40
2022/12/05 05:41:19;;;;;;;10.07;5.40;;;;;;;;;;2122755;28;20058;-40
2022/12/05 05:42:20;;;;;;;13.95;5.72;;;;;;;;;;2122862;28;20047;-40
2022/12/05 05:43:21;;;;;;;11.40;5.63;;;;;;;;;;2122514;28;20047;-41
2022/12/05 05:44:22;;;;;;;10.38;5.32;;;;;;;;;;2122899;28;20047;-41
2022/12/05 05:45:23;;;;;;;10.83;4.83;;;;;;;;;;2122836;28;20075;-40
2022/12/05 05:46:25;;;;;;;12.63;5.85;;;;;;;;;;2122791;28;20039;-40
2022/12/05 05:47:27;;;;;;;17.05;5.40;;;;;;;;;;2122406;27;20050;-41
2022/12/05 05:48:30;;;;;;;15.10;5.43;;;;;;;;;;2122570;28;20296;-41
2022/12/05 05:49:32;;;;;;;12.90;5.47;;;;;;;;;;2122688;28;20786;-41
2022/12/05 05:50:33;;;;;;;15.95;6.43;;;;;;;;;;2122534;28;20058;-41
2022/12/05 05:51:34;;;;;;;17.67;6.13;;;;;;;;;;2122786;28;20051;-41
2022/12/05 05:52:36;;;;;;;13.60;5.10;;;;;;;;;;2122619;28;20460;-41
2022/12/05 05:53:37;;;;;;;12.45;5.75;;;;;;;;;;2122635;28;20496;-41
2022/12/05 05:54:38;;;;;;;14.43;5.37;;;;;;;;;;2122595;28;20090;-41
2022/12/05 05:55:39;;;;;;;13.55;5.82;;;;;;;;;;2122668;28;20035;-41
2022/12/05 05:56:40;;;;;;;13.27;5.50;;;;;;;;;;2122790;28;20141;-41
2022/12/05 05:57:41;;;;;;;10.85;6.10;;;;;;;;;;2122457;28;20399;-41
2022/12/05 05:58:42;;;;;;;13.00;5.35;;;;;;;;;;2122818;28;20039;-41
2022/12/05 05:59:43;;;;;;;13.65;6.22;;;;;;;;;;2122557;28;20047;-41
2022/12/05 06:00:44;;;;;;;19.50;7.57;;;;;;;;;;2122682;28;20502;-41
2022/12/05 06:01:45;;;;;;;16.30;6.43;;;;;;;;;;2122575;28;20099;-41
2022/12/05 06:02:47;;;;;;;13.50;6.22;;;;;;;;;;2122414;28;20632;-40
2022/12/05 06:03:49;;;;;;;13.77;6.22;;;;;;;;;;2122495;28;20076;-40
2022/12/05 06:04:50;;;;;;;17.00;6.05;;;;;;;;;;2122624;28;20050;-40
2022/12/05 06:05:55;;;;;;;21.58;6.47;;;;;;;;;;2122607;28;20051;-40
2022/12/05 06:06:56;;;;;;;12.48;5.75;;;;;;;;;;2122576;28;20043;-40
2022/12/05 06:07:58;;;;;;;12.32;5.85;;;;;;;;;;2122666;28;20046;-40
2022/12/05 06:08:59;;;;;;;14.00;6.53;;;;;;;;;;2122760;28;20043;-40
2022/12/05 06:10:00;;;;;;;15.90;6.47;;;;;;;;;;2122488;28;20047;-40
2022/12/05 06:11:03;;;;;;;15.57;6.57;;;;;;;;;;2122261;27;20047;-40
2022/12/05 06:12:05;;;;;;;14.60;6.15;;;;;;;;;;2122522;28;20399;-40
2022/12/05 06:13:06;;;;;;;12.18;5.85;;;;;;;;;;2122709;28;20059;-40
2022/12/05 06:14:08;;;;;;;13.20;6.03;;;;;;;;;;2122839;28;20398;-40
2022/12/05 06:15:08;;;;;;;;;;;;;;;;;;2123007;28;20103;-40
2022/12/05 06:16:11;;;;;;;15.23;6.20;;;;;;;;;;2122433;28;20321;-40
2022/12/05 06:17:12;;;;;;;13.43;6.28;;;;;;;;;;2122404;28;20499;-40
2022/12/05 06:18:13;;;;;;;24.40;6.77;;;;;;;;;;2122749;28;20053;-40
2022/12/05 06:19:14;;;;;;;16.92;6.28;;;;;;;;;;2122501;28;20050;-40
2022/12/05 06:20:15;;;;;;;17.35;7.00;;;;;;;;;;2122607;28;20051;-40
2022/12/05 06:21:16;;;;;;;12.75;6.22;;;;;;;;;;2122752;28;20415;-44
2022/12/05 06:22:17;;;;;;;13.55;5.63;;;;;;;;;;2122126;28;20039;-44
2022/12/05 06:23:19;;;;;;;13.07;6.28;;;;;;;;;;2122251;28;20051;-44
2022/12/05 06:24:20;;;;;;;15.77;6.05;;;;;;;;;;2122694;28;20047;-44
2022/12/05 06:25:21;;;;;;;13.93;6.07;;;;;;;;;;2122365;28;20051;-44
2022/12/05 06:26:22;;;;;;;17.92;6.57;;;;;;;;;;2122390;28;20644;-45
2022/12/05 06:27:23;;;;;;;15.20;6.75;;;;;;;;;;2122801;28;20063;-40
2022/12/05 06:28:24;;;;;;;14.20;6.82;;;;;;;;;;2122404;28;20036;-40
2022/12/05 06:29:26;;;;;;;13.83;6.70;;;;;;;;;;2122645;28;20043;-40
2022/12/05 06:30:32;;;;;;;13.57;6.18;;;;;;;;;;2122545;28;20058;-40
2022/12/05 06:31:34;;;;;;;16.87;7.07;;;;;;;;;;2122714;28;20051;-40
2022/12/05 06:32:35;;;;;;;15.13;7.50;;;;;;;;;;2122480;28;20073;-40
2022/12/05 06:33:36;;;;;;;11.77;6.97;;;;;;;;;;2122385;28;20483;-40
2022/12/05 06:34:37;;;;;;;17.75;7.72;;;;;;;;;;2122277;28;20736;-40
2022/12/05 06:35:38;;;;;;;17.08;7.93;;;;;;;;;;2122373;28;20055;-40
2022/12/05 06:36:39;;;;;;;15.98;7.63;;;;;;;;;;2122710;28;20051;-44
2022/12/05 06:37:40;;;;;;;14.40;7.10;;;;;;;;;;2122227;28;20051;-44
2022/12/05 06:38:42;;;;;;;16.52;8.77;;;;;;;;;;2122466;28;20104;-44
2022/12/05 06:39:43;;;;;;;19.88;8.18;;;;;;;;;;2122476;28;20059;-45
2022/12/05 06:40:44;;;;;;;14.57;7.22;;;;;;;;;;2122400;28;20483;-45
2022/12/05 06:41:45;;;;;;;22.20;8.27;;;;;;;;;;2122343;28;20277;-45
2022/12/05 06:42:47;;;;;;;16.35;7.30;;;;;;;;;;2122330;28;20047;-45
2022/12/05 06:43:48;;;;;;;16.25;7.03;;;;;;;;;;2122299;28;20410;-45
2022/12/05 06:44:49;;;;;;;12.90;6.78;;;;;;;;;;2122245;28;20046;-45
2022/12/05 06:45:50;;;;;;;16.15;7.57;;;;;;;;;;2122443;28;20449;-44
2022/12/05 06:46:51;;;;;;;15.30;7.00;;;;;;;;;;2122325;28;20096;-44
2022/12/05 06:47:52;;;;;;;13.43;6.95;;;;;;;;;;2122292;28;20051;-44
2022/12/05 06:48:54;;;;;;;12.15;7.20;;;;;;;;;;2122792;28;20054;-40
2022/12/05 06:49:55;;;;;;;16.42;7.07;;;;;;;;;;2122393;28;20096;-40
2022/12/05 06:50:57;;;;;;;16.33;7.70;;;;;;;;;;2122386;28;20047;-40
2022/12/05 06:51:58;;;;;;;15.30;6.30;;;;;;;;;;2122386;28;20082;-40
2022/12/05 06:52:59;;;;;;;12.32;6.00;;;;;;;;;;2122264;28;20063;-40
2022/12/05 06:54:01;;;;;;;18.97;7.67;;;;;;;;;;2122712;28;20068;-41
2022/12/05 06:55:02;;;;;;;16.45;7.78;;;;;;;;;;2122465;28;20055;-41
2022/12/05 06:56:04;;;;;;;18.10;7.50;;;;;;;;;;2122213;28;20043;-41
2022/12/05 06:57:05;;;;;;;16.60;7.65;;;;;;;;;;2122282;28;20511;-40
2022/12/05 06:58:06;;;;;;;11.93;6.37;;;;;;;;;;2122200;28;20137;-41
2022/12/05 06:59:07;;;;;;;17.02;7.53;;;;;;;;;;2122333;27;20051;-41
2022/12/05 07:01:40;;;;;;;12.77;6.40;;;;;;;;;;2124125;28;20051;-41
2022/12/05 07:02:42;;;;;;;17.40;7.20;;;;;;;;;;2124036;28;20513;-41
2022/12/05 07:03:43;;;;;;;13.25;6.90;;;;;;;;;;2123666;28;20484;-41
2022/12/05 07:04:45;;;;;;;14.40;7.17;;;;;;;;;;2123769;28;20054;-41
2022/12/05 07:05:45;;;;;;;15.23;7.28;;;;;;;;;;2123835;28;20320;-45
2022/12/05 07:06:48;;;;;;;18.43;7.93;;;;;;;;;;2123738;28;20103;-45
2022/12/05 07:07:51;;;;;;;17.67;7.30;;;;;;;;;;2128875;27;20043;-46
2022/12/05 07:08:53;;;;;;;18.13;6.93;;;;;;;;;;2132165;27;20078;-47
2022/12/05 07:09:54;;;;;;;12.98;6.60;;;;;;;;;;2132272;27;20091;-46
2022/12/05 07:10:56;;;;;;;14.73;7.35;;;;;;;;;;2132471;27;20047;-46
2022/12/05 07:11:56;;;;;;;14.02;7.05;;;;;;;;;;2132203;27;20403;-46
2022/12/05 07:12:58;;;;;;;15.73;7.70;;;;;;;;;;2132423;27;20050;-41
2022/12/05 07:13:59;;;;;;;18.33;8.30;;;;;;;;;;2132310;27;20046;-46
2022/12/05 07:15:01;;;;;;;19.55;7.13;;;;;;;;;;2132348;27;20050;-45
2022/12/05 07:16:05;;;;;;;14.38;6.93;;;;;;;;;;2132226;27;20047;-46
2022/12/05 07:17:07;;;;;;;18.48;7.63;;;;;;;;;;2132147;27;20416;-46
2022/12/05 07:18:07;;;;;;;17.80;8.20;;;;;;;;;;2132236;27;20051;-46
2022/12/05 07:19:09;;;;;;;14.67;7.03;;;;;;;;;;2132378;27;20042;-45
2022/12/05 07:20:11;;;;;;;19.42;8.48;;;;;;;;;;2132265;27;20092;-45
2022/12/05 07:21:13;;;;;;;16.33;7.93;;;;;;;;;;2132269;27;20097;-45
2022/12/05 07:22:15;;;;;;;18.33;7.78;;;;;;;;;;2131560;27;20475;-46
2022/12/05 07:23:17;;;;;;;20.30;8.15;;;;;;;;;;2123450;28;20110;-45
2022/12/05 07:24:18;;;;;;;17.52;8.18;;;;;;;;;;2123958;28;20047;-41
2022/12/05 07:25:21;;;;;;;19.37;7.80;;;;;;;;;;2123569;28;20139;-41
2022/12/05 07:26:23;;;;;;;15.73;8.07;;;;;;;;;;2123810;28;20054;-41
2022/12/05 07:27:24;;;;;;;19.95;8.52;;;;;;;;;;2123636;28;20040;-46
2022/12/05 07:28:29;;;;;;;15.75;7.97;;;;;;;;;;2123635;28;20078;-46
2022/12/05 07:29:30;;;;;;;21.17;8.73;;;;;;;;;;2123639;28;20043;-41
2022/12/05 07:30:31;;;;;;;19.70;8.93;;;;;;;;;;2123832;28;20051;-41
2022/12/05 07:31:32;;;;;;;17.40;7.90;;;;;;;;;;2123573;28;20283;-41
2022/12/05 07:32:34;;;;;;;16.00;7.85;;;;;;;;;;2123355;28;20503;-41
2022/12/05 07:33:35;;;;;;;20.02;8.15;;;;;;;;;;2123823;28;20047;-41
2022/12/05 07:34:37;;;;;;;21.95;8.88;;;;;;;;;;2123659;28;20050;-41
2022/12/05 07:35:38;;;;;;;18.73;8.80;;;;;;;;;;2123639;28;20051;-41
2022/12/05 07:36:39;;;;;;;21.77;9.43;;;;;;;;;;2123465;28;20403;-41
2022/12/05 07:37:40;;;;;;;19.85;9.35;;;;;;;;;;2123620;28;20047;-46
2022/12/05 07:38:42;;;;;;;21.30;10.23;;;;;;;;;;2123391;28;20074;-45
2022/12/05 07:39:43;;;;;;;18.15;8.90;;;;;;;;;;2123512;28;20407;-46
2022/12/05 07:40:45;;;;;;;18.05;8.15;;;;;;;;;;2123807;28;20058;-45
2022/12/05 07:41:46;;;;;;;16.85;8.82;;;;;;;;;;2123765;28;20055;-41
2022/12/05 07:42:47;;;;;;;19.02;9.27;;;;;;;;;;2123441;28;20104;-41
2022/12/05 07:43:49;;;;;;;17.40;8.70;;;;;;;;;;2123495;28;20047;-41
2022/12/05 07:44:50;;;;;;;12.65;7.82;;;;;;;;;;2123481;28;20047;-41
2022/12/05 07:45:51;;;;;;;17.33;8.15;;;;;;;;;;2123621;28;20047;-41
2022/12/05 07:46:52;;;;;;;17.43;8.97;;;;;;;;;;2123826;28;20078;-41
2022/12/05 07:47:53;;;;;;;18.48;8.90;;;;;;;;;;2123498;28;20400;-41
2022/12/05 07:48:55;;;;;;;12.73;6.72;;;;;;;;;;2123569;28;20047;-41
2022/12/05 07:49:56;;;;;;;16.13;7.18;;;;;;;;;;2123705;28;20043;-47
2022/12/05 07:50:58;;;;;;;18.10;8.20;;;;;;;;;;2123513;28;20075;-45
2022/12/05 07:51:59;;;;;;;;;;;;;;;;;;2123889;28;20054;-45
2022/12/05 07:53:00;;;;;;;12.45;6.15;;;;;;;;;;2123301;28;19958;-45
2022/12/05 07:54:01;;;;;;;18.58;7.80;;;;;;;;;;2123717;28;20050;-45
2022/12/05 07:55:03;;;;;;;16.73;7.35;;;;;;;;;;2123759;28;20058;-41
2022/12/05 07:56:05;;;;;;;22.35;7.53;;;;;;;;;;2123698;28;20047;-41
2022/12/05 07:57:06;;;;;;;16.00;7.90;;;;;;;;;;2123370;28;20043;-41
2022/12/05 07:58:07;;;;;;;16.73;8.03;;;;;;;;;;2123487;28;20047;-41
2022/12/05 07:59:09;;;;;;;18.27;8.75;;;;;;;;;;2123523;28;20501;-41
2022/12/05 08:00:10;;;;;;;13.57;7.18;;;;;;;;;;2123230;28;20459;-41
2022/12/05 08:01:12;;;;;;;16.17;7.35;;;;;;;;;;2123372;28;20051;-41
2022/12/05 08:02:13;;;;;;;13.70;7.53;;;;;;;;;;2123864;28;20048;-44
2022/12/05 08:03:15;;;;;;;17.40;7.55;;;;;;;;;;2123078;28;20564;-46
2022/12/05 08:04:16;;;;;;;18.17;8.50;;;;;;;;;;2123062;27;20407;-47
2022/12/05 08:05:17;;;;;;;16.98;8.68;;;;;;;;;;2123367;28;20047;-46
2022/12/05 08:06:19;;;;;;;15.23;8.25;;;;;;;;;;2123337;28;20050;-45
2022/12/05 08:07:20;;;;;;;20.60;9.57;;;;;;;;;;2123577;28;20046;-46
2022/12/05 08:08:21;;;;;;;15.60;7.70;;;;;;;;;;2123471;28;20039;-45
2022/12/05 08:09:22;;;;;;;18.63;8.50;;;;;;;;;;2123344;28;20043;-46
2022/12/05 08:10:23;;;;;;;15.27;7.60;;;;;;;;;;2123801;27;20503;-46
2022/12/05 08:11:27;;;;;;;21.27;8.85;;;;;;;;;;2123493;28;20081;-41
2022/12/05 08:12:27;;;;;;;17.48;7.85;;;;;;;;;;2123285;28;20039;-41
2022/12/05 08:13:29;;;;;;;18.00;9.00;;;;;;;;;;2123414;28;20085;-41
2022/12/05 08:14:30;;;;;;;17.30;7.78;;;;;;;;;;2123298;28;20301;-41
2022/12/05 08:15:32;;;;;;;17.77;8.45;;;;;;;;;;2123218;28;20509;-41
2022/12/05 08:16:33;;;;;;;18.55;9.30;;;;;;;;;;2123117;28;20047;-39
2022/12/05 08:17:35;;;;;;;18.58;9.35;;;;;;;;;;2123274;28;20142;-40
2022/12/05 08:18:36;;;;;;;16.52;8.20;;;;;;;;;;2123383;28;20078;-40
2022/12/05 08:19:37;;;;;;;18.48;8.35;;;;;;;;;;2123556;28;20043;-40
2022/12/05 08:20:38;;;;;;;16.58;8.65;;;;;;;;;;2123133;28;20112;-40
2022/12/05 08:21:39;;;;;;;16.27;7.85;;;;;;;;;;2123148;28;20407;-40
2022/12/05 08:22:40;;;;;;;19.00;8.53;;;;;;;;;;2123338;28;20045;-45
2022/12/05 08:23:41;;;;;;;15.35;7.43;;;;;;;;;;2123104;28;20051;-44
2022/12/05 08:24:42;;;;;;;20.57;8.53;;;;;;;;;;2123277;28;20138;-44
2022/12/05 08:25:43;;;;;;;18.58;9.02;;;;;;;;;;2123204;28;20051;-45
2022/12/05 08:26:45;;;;;;;16.80;8.23;;;;;;;;;;2123376;28;20277;-44
2022/12/05 08:27:46;;;;;;;16.05;8.63;;;;;;;;;;2122998;28;20070;-44
2022/12/05 08:28:50;;;;;;;20.17;8.77;;;;;;;;;;2123117;28;20051;-45
2022/12/05 08:29:52;;;;;;;24.90;10.00;;;;;;;;;;2123403;28;20096;-40
2022/12/05 08:30:53;;;;;;;18.65;8.38;;;;;;;;;;2123474;28;20054;-40
2022/12/05 08:31:55;;;;;;;15.17;7.50;;;;;;;;;;2123161;28;20057;-40
2022/12/05 08:32:55;;;;;;;17.58;7.95;;;;;;;;;;2123050;28;20119;-40
2022/12/05 08:33:57;;;;;;;19.40;8.73;;;;;;;;;;2123311;28;20047;-40
2022/12/05 08:35:00;;;;;;;11.85;6.95;;;;;;;;;;2123067;28;20043;-40
2022/12/05 08:36:02;;;;;;;18.42;7.57;;;;;;;;;;2123460;28;20054;-40
2022/12/05 08:37:03;;;;;;;16.52;9.23;;;;;;;;;;2123191;28;20095;-40
2022/12/05 08:38:04;;;;;;;14.97;8.27;;;;;;;;;;2123179;28;20072;-40